sensor_id;sensor_type;location;lat;lon;timestamp;P1;durP1;ratioP1;P2;durP2;ratioP2
18532;SDS011;9396;51.510;11.934;2022-10-14T00:00:22;13.73;;;8.07;;
18532;SDS011;9396;51.510;11.934;2022-10-14T00:02:49;12.53;;;8.47;;
18532;SDS011;9396;51.510;11.934;2022-10-14T00:05:16;12.50;;;8.23;;
18532;SDS011;9396;51.510;11.934;2022-10-14T00:07:42;14.80;;;8.47;;
18532;SDS011;9396;51.510;11.934;2022-10-14T00:10:09;13.10;;;8.27;;
18532;SDS011;9396;51.510;11.934;2022-10-14T00:12:37;12.93;;;8.43;;
18532;SDS011;9396;51.510;11.934;2022-10-14T00:15:04;13.13;;;7.53;;
18532;SDS011;9396;51.510;11.934;2022-10-14T00:17:32;14.13;;;7.93;;
18532;SDS011;9396;51.510;11.934;2022-10-14T00:19:59;13.87;;;7.80;;
18532;SDS011;9396;51.510;11.934;2022-10-14T00:22:25;13.17;;;7.30;;
18532;SDS011;9396;51.510;11.934;2022-10-14T00:24:52;15.00;;;7.57;;
18532;SDS011;9396;51.510;11.934;2022-10-14T00:27:18;10.93;;;7.47;;
18532;SDS011;9396;51.510;11.934;2022-10-14T00:29:46;10.90;;;7.40;;
18532;SDS011;9396;51.510;11.934;2022-10-14T00:32:13;15.17;;;8.87;;
18532;SDS011;9396;51.510;11.934;2022-10-14T00:34:40;12.03;;;7.93;;
18532;SDS011;9396;51.510;11.934;2022-10-14T00:37:06;10.57;;;7.37;;
18532;SDS011;9396;51.510;11.934;2022-10-14T00:39:33;12.67;;;7.70;;
18532;SDS011;9396;51.510;11.934;2022-10-14T00:42:00;12.70;;;8.47;;
18532;SDS011;9396;51.510;11.934;2022-10-14T00:47:29;13.57;;;8.57;;
18532;SDS011;9396;51.510;11.934;2022-10-14T00:49:56;13.83;;;9.17;;
18532;SDS011;9396;51.510;11.934;2022-10-14T00:52:25;17.70;;;8.80;;
18532;SDS011;9396;51.510;11.934;2022-10-14T00:54:53;12.17;;;9.03;;
18532;SDS011;9396;51.510;11.934;2022-10-14T00:57:22;14.60;;;8.37;;
18532;SDS011;9396;51.510;11.934;2022-10-14T00:59:50;12.27;;;8.30;;
18532;SDS011;9396;51.510;11.934;2022-10-14T01:02:21;12.83;;;8.47;;
18532;SDS011;9396;51.510;11.934;2022-10-14T01:04:47;15.97;;;8.37;;
18532;SDS011;9396;51.510;11.934;2022-10-14T01:07:16;13.90;;;8.23;;
18532;SDS011;9396;51.510;11.934;2022-10-14T01:09:52;11.90;;;8.10;;
18532;SDS011;9396;51.510;11.934;2022-10-14T01:12:30;16.53;;;8.20;;
18532;SDS011;9396;51.510;11.934;2022-10-14T01:15:04;13.07;;;8.13;;
18532;SDS011;9396;51.510;11.934;2022-10-14T01:17:43;11.80;;;8.17;;
18532;SDS011;9396;51.510;11.934;2022-10-14T01:20:25;14.20;;;8.83;;
18532;SDS011;9396;51.510;11.934;2022-10-14T01:23:11;15.83;;;8.77;;
18532;SDS011;9396;51.510;11.934;2022-10-14T01:25:52;14.47;;;9.60;;
18532;SDS011;9396;51.510;11.934;2022-10-14T01:28:26;17.43;;;8.77;;
18532;SDS011;9396;51.510;11.934;2022-10-14T01:31:01;13.57;;;8.60;;
18532;SDS011;9396;51.510;11.934;2022-10-14T01:33:32;10.07;;;7.80;;
18532;SDS011;9396;51.510;11.934;2022-10-14T01:36:03;11.83;;;8.33;;
18532;SDS011;9396;51.510;11.934;2022-10-14T01:38:36;14.40;;;9.10;;
18532;SDS011;9396;51.510;11.934;2022-10-14T01:41:06;11.67;;;7.50;;
18532;SDS011;9396;51.510;11.934;2022-10-14T01:43:39;16.47;;;8.43;;
18532;SDS011;9396;51.510;11.934;2022-10-14T01:46:12;19.03;;;9.23;;
18532;SDS011;9396;51.510;11.934;2022-10-14T01:48:40;14.73;;;9.07;;
18532;SDS011;9396;51.510;11.934;2022-10-14T01:51:11;14.53;;;8.83;;
18532;SDS011;9396;51.510;11.934;2022-10-14T01:53:44;13.63;;;8.33;;
18532;SDS011;9396;51.510;11.934;2022-10-14T01:56:16;15.33;;;8.30;;
18532;SDS011;9396;51.510;11.934;2022-10-14T01:58:43;17.83;;;9.03;;
18532;SDS011;9396;51.510;11.934;2022-10-14T02:01:12;14.97;;;8.23;;
18532;SDS011;9396;51.510;11.934;2022-10-14T02:03:40;12.13;;;8.20;;
18532;SDS011;9396;51.510;11.934;2022-10-14T02:06:08;15.87;;;8.10;;
18532;SDS011;9396;51.510;11.934;2022-10-14T02:08:42;12.97;;;7.70;;
18532;SDS011;9396;51.510;11.934;2022-10-14T02:11:21;18.03;;;8.33;;
18532;SDS011;9396;51.510;11.934;2022-10-14T02:13:50;12.60;;;7.67;;
18532;SDS011;9396;51.510;11.934;2022-10-14T02:16:32;13.20;;;7.90;;
18532;SDS011;9396;51.510;11.934;2022-10-14T02:19:07;13.73;;;7.93;;
18532;SDS011;9396;51.510;11.934;2022-10-14T02:21:42;13.37;;;7.83;;
18532;SDS011;9396;51.510;11.934;2022-10-14T02:24:12;11.87;;;7.73;;
18532;SDS011;9396;51.510;11.934;2022-10-14T02:26:45;15.70;;;7.97;;
18532;SDS011;9396;51.510;11.934;2022-10-14T02:29:15;14.83;;;8.40;;
18532;SDS011;9396;51.510;11.934;2022-10-14T02:31:45;11.90;;;7.77;;
18532;SDS011;9396;51.510;11.934;2022-10-14T02:34:13;12.87;;;8.87;;
18532;SDS011;9396;51.510;11.934;2022-10-14T02:36:43;11.50;;;8.40;;
18532;SDS011;9396;51.510;11.934;2022-10-14T02:39:11;13.63;;;8.70;;
18532;SDS011;9396;51.510;11.934;2022-10-14T02:41:43;13.23;;;8.33;;
18532;SDS011;9396;51.510;11.934;2022-10-14T02:44:10;12.57;;;8.87;;
18532;SDS011;9396;51.510;11.934;2022-10-14T02:46:37;12.60;;;8.70;;
18532;SDS011;9396;51.510;11.934;2022-10-14T02:49:06;14.87;;;8.97;;
18532;SDS011;9396;51.510;11.934;2022-10-14T02:51:33;15.33;;;9.97;;
18532;SDS011;9396;51.510;11.934;2022-10-14T02:54:00;14.70;;;9.70;;
18532;SDS011;9396;51.510;11.934;2022-10-14T02:56:26;13.70;;;9.33;;
18532;SDS011;9396;51.510;11.934;2022-10-14T02:58:53;16.27;;;9.40;;
18532;SDS011;9396;51.510;11.934;2022-10-14T03:01:19;14.33;;;9.60;;
18532;SDS011;9396;51.510;11.934;2022-10-14T03:03:46;14.73;;;10.33;;
18532;SDS011;9396;51.510;11.934;2022-10-14T03:06:14;15.43;;;10.50;;
18532;SDS011;9396;51.510;11.934;2022-10-14T03:08:41;12.73;;;9.57;;
18532;SDS011;9396;51.510;11.934;2022-10-14T03:11:07;16.93;;;10.60;;
18532;SDS011;9396;51.510;11.934;2022-10-14T03:13:34;15.03;;;10.20;;
18532;SDS011;9396;51.510;11.934;2022-10-14T03:16:00;14.83;;;11.03;;
18532;SDS011;9396;51.510;11.934;2022-10-14T03:18:27;12.83;;;9.57;;
18532;SDS011;9396;51.510;11.934;2022-10-14T03:20:55;17.50;;;10.37;;
18532;SDS011;9396;51.510;11.934;2022-10-14T03:23:23;16.07;;;10.83;;
18532;SDS011;9396;51.510;11.934;2022-10-14T03:25:50;19.93;;;10.33;;
18532;SDS011;9396;51.510;11.934;2022-10-14T03:28:16;17.20;;;11.07;;
18532;SDS011;9396;51.510;11.934;2022-10-14T03:30:43;13.47;;;9.80;;
18532;SDS011;9396;51.510;11.934;2022-10-14T03:33:10;16.53;;;10.23;;
18532;SDS011;9396;51.510;11.934;2022-10-14T03:35:36;14.70;;;10.50;;
18532;SDS011;9396;51.510;11.934;2022-10-14T03:38:03;16.10;;;10.17;;
18532;SDS011;9396;51.510;11.934;2022-10-14T03:40:32;13.53;;;10.00;;
18532;SDS011;9396;51.510;11.934;2022-10-14T03:42:58;16.83;;;11.10;;
18532;SDS011;9396;51.510;11.934;2022-10-14T03:45:26;18.00;;;10.37;;
18532;SDS011;9396;51.510;11.934;2022-10-14T03:47:53;14.93;;;9.97;;
18532;SDS011;9396;51.510;11.934;2022-10-14T03:50:20;20.47;;;10.80;;
18532;SDS011;9396;51.510;11.934;2022-10-14T03:52:46;18.47;;;11.17;;
18532;SDS011;9396;51.510;11.934;2022-10-14T03:55:13;15.23;;;9.40;;
18532;SDS011;9396;51.510;11.934;2022-10-14T03:57:42;19.97;;;11.13;;
18532;SDS011;9396;51.510;11.934;2022-10-14T04:00:09;17.93;;;10.10;;
18532;SDS011;9396;51.510;11.934;2022-10-14T04:02:36;18.53;;;9.77;;
18532;SDS011;9396;51.510;11.934;2022-10-14T04:05:03;13.70;;;10.17;;
18532;SDS011;9396;51.510;11.934;2022-10-14T04:07:30;17.70;;;11.30;;
18532;SDS011;9396;51.510;11.934;2022-10-14T04:09:57;18.47;;;10.20;;
18532;SDS011;9396;51.510;11.934;2022-10-14T04:12:24;22.00;;;11.37;;
18532;SDS011;9396;51.510;11.934;2022-10-14T04:14:52;14.10;;;10.43;;
18532;SDS011;9396;51.510;11.934;2022-10-14T04:17:20;14.50;;;10.43;;
18532;SDS011;9396;51.510;11.934;2022-10-14T04:19:47;19.10;;;10.97;;
18532;SDS011;9396;51.510;11.934;2022-10-14T04:22:14;14.87;;;10.73;;
18532;SDS011;9396;51.510;11.934;2022-10-14T04:24:40;14.90;;;11.07;;
18532;SDS011;9396;51.510;11.934;2022-10-14T04:27:07;17.63;;;10.50;;
18532;SDS011;9396;51.510;11.934;2022-10-14T04:29:34;21.70;;;12.10;;
18532;SDS011;9396;51.510;11.934;2022-10-14T04:32:02;17.27;;;11.43;;
18532;SDS011;9396;51.510;11.934;2022-10-14T04:34:28;17.97;;;11.53;;
18532;SDS011;9396;51.510;11.934;2022-10-14T04:36:55;17.43;;;11.00;;
18532;SDS011;9396;51.510;11.934;2022-10-14T04:39:22;17.73;;;11.00;;
18532;SDS011;9396;51.510;11.934;2022-10-14T04:41:49;15.37;;;10.23;;
18532;SDS011;9396;51.510;11.934;2022-10-14T04:44:15;16.07;;;11.07;;
18532;SDS011;9396;51.510;11.934;2022-10-14T04:46:42;17.57;;;11.07;;
18532;SDS011;9396;51.510;11.934;2022-10-14T04:49:10;13.77;;;10.23;;
18532;SDS011;9396;51.510;11.934;2022-10-14T04:51:36;19.33;;;11.27;;
18532;SDS011;9396;51.510;11.934;2022-10-14T04:54:03;15.27;;;10.43;;
18532;SDS011;9396;51.510;11.934;2022-10-14T04:56:30;19.97;;;10.97;;
18532;SDS011;9396;51.510;11.934;2022-10-14T04:58:57;17.10;;;11.40;;
18532;SDS011;9396;51.510;11.934;2022-10-14T05:01:23;20.60;;;10.87;;
18532;SDS011;9396;51.510;11.934;2022-10-14T05:03:50;18.67;;;11.50;;
18532;SDS011;9396;51.510;11.934;2022-10-14T05:06:18;18.87;;;11.97;;
18532;SDS011;9396;51.510;11.934;2022-10-14T05:08:44;20.03;;;11.03;;
18532;SDS011;9396;51.510;11.934;2022-10-14T05:11:11;19.47;;;11.80;;
18532;SDS011;9396;51.510;11.934;2022-10-14T05:13:38;18.47;;;10.53;;
18532;SDS011;9396;51.510;11.934;2022-10-14T05:16:05;18.23;;;10.33;;
18532;SDS011;9396;51.510;11.934;2022-10-14T05:18:33;17.93;;;11.43;;
18532;SDS011;9396;51.510;11.934;2022-10-14T05:21:00;21.17;;;11.73;;
18532;SDS011;9396;51.510;11.934;2022-10-14T05:23:28;19.27;;;11.23;;
18532;SDS011;9396;51.510;11.934;2022-10-14T05:25:54;16.17;;;10.53;;
18532;SDS011;9396;51.510;11.934;2022-10-14T05:28:21;16.53;;;10.87;;
18532;SDS011;9396;51.510;11.934;2022-10-14T05:30:47;16.80;;;10.23;;
18532;SDS011;9396;51.510;11.934;2022-10-14T05:33:14;17.27;;;11.43;;
18532;SDS011;9396;51.510;11.934;2022-10-14T05:35:41;20.63;;;11.60;;
18532;SDS011;9396;51.510;11.934;2022-10-14T05:38:08;21.60;;;11.27;;
18532;SDS011;9396;51.510;11.934;2022-10-14T05:40:37;14.40;;;10.27;;
18532;SDS011;9396;51.510;11.934;2022-10-14T05:43:04;15.90;;;10.53;;
18532;SDS011;9396;51.510;11.934;2022-10-14T05:45:31;16.50;;;11.93;;
18532;SDS011;9396;51.510;11.934;2022-10-14T05:47:58;14.90;;;10.47;;
18532;SDS011;9396;51.510;11.934;2022-10-14T05:50:24;16.87;;;11.27;;
18532;SDS011;9396;51.510;11.934;2022-10-14T05:52:51;16.20;;;11.77;;
18532;SDS011;9396;51.510;11.934;2022-10-14T05:55:18;19.10;;;11.43;;
18532;SDS011;9396;51.510;11.934;2022-10-14T05:57:46;18.00;;;11.43;;
18532;SDS011;9396;51.510;11.934;2022-10-14T06:00:12;22.50;;;11.73;;
18532;SDS011;9396;51.510;11.934;2022-10-14T06:02:41;17.37;;;11.23;;
18532;SDS011;9396;51.510;11.934;2022-10-14T06:05:08;22.97;;;11.60;;
18532;SDS011;9396;51.510;11.934;2022-10-14T06:07:34;16.70;;;11.10;;
18532;SDS011;9396;51.510;11.934;2022-10-14T06:10:01;19.00;;;12.13;;
18532;SDS011;9396;51.510;11.934;2022-10-14T06:12:28;17.77;;;12.13;;
18532;SDS011;9396;51.510;11.934;2022-10-14T06:14:56;18.77;;;12.77;;
18532;SDS011;9396;51.510;11.934;2022-10-14T06:17:22;17.87;;;11.77;;
18532;SDS011;9396;51.510;11.934;2022-10-14T06:19:49;22.03;;;11.23;;
18532;SDS011;9396;51.510;11.934;2022-10-14T06:22:15;17.80;;;11.47;;
18532;SDS011;9396;51.510;11.934;2022-10-14T06:24:42;18.90;;;11.50;;
18532;SDS011;9396;51.510;11.934;2022-10-14T06:27:09;17.17;;;11.97;;
18532;SDS011;9396;51.510;11.934;2022-10-14T06:29:35;17.40;;;11.97;;
18532;SDS011;9396;51.510;11.934;2022-10-14T06:32:04;20.17;;;11.47;;
18532;SDS011;9396;51.510;11.934;2022-10-14T06:34:33;19.60;;;11.80;;
18532;SDS011;9396;51.510;11.934;2022-10-14T06:37:00;15.93;;;10.80;;
18532;SDS011;9396;51.510;11.934;2022-10-14T06:39:27;20.30;;;11.77;;
18532;SDS011;9396;51.510;11.934;2022-10-14T06:41:54;15.53;;;11.13;;
18532;SDS011;9396;51.510;11.934;2022-10-14T06:44:20;22.53;;;11.33;;
18532;SDS011;9396;51.510;11.934;2022-10-14T06:46:47;16.57;;;10.53;;
18532;SDS011;9396;51.510;11.934;2022-10-14T06:49:15;17.50;;;10.93;;
18532;SDS011;9396;51.510;11.934;2022-10-14T06:51:42;16.10;;;11.80;;
18532;SDS011;9396;51.510;11.934;2022-10-14T06:54:08;19.13;;;10.77;;
18532;SDS011;9396;51.510;11.934;2022-10-14T06:56:35;15.97;;;11.23;;
18532;SDS011;9396;51.510;11.934;2022-10-14T06:59:01;21.27;;;11.20;;
18532;SDS011;9396;51.510;11.934;2022-10-14T07:01:29;20.60;;;11.30;;
18532;SDS011;9396;51.510;11.934;2022-10-14T07:03:56;22.10;;;11.87;;
18532;SDS011;9396;51.510;11.934;2022-10-14T07:06:24;20.83;;;10.70;;
18532;SDS011;9396;51.510;11.934;2022-10-14T07:08:51;18.73;;;11.80;;
18532;SDS011;9396;51.510;11.934;2022-10-14T07:11:18;16.30;;;11.43;;
18532;SDS011;9396;51.510;11.934;2022-10-14T07:13:44;15.23;;;10.80;;
18532;SDS011;9396;51.510;11.934;2022-10-14T07:16:11;15.83;;;10.63;;
18532;SDS011;9396;51.510;11.934;2022-10-14T07:18:38;18.10;;;10.93;;
18532;SDS011;9396;51.510;11.934;2022-10-14T07:21:05;16.27;;;11.33;;
18532;SDS011;9396;51.510;11.934;2022-10-14T07:23:34;18.43;;;11.90;;
18532;SDS011;9396;51.510;11.934;2022-10-14T07:26:00;16.77;;;11.40;;
18532;SDS011;9396;51.510;11.934;2022-10-14T07:28:27;19.07;;;11.57;;
18532;SDS011;9396;51.510;11.934;2022-10-14T07:30:58;22.90;;;10.97;;
18532;SDS011;9396;51.510;11.934;2022-10-14T07:33:25;17.27;;;10.70;;
18532;SDS011;9396;51.510;11.934;2022-10-14T07:35:52;14.80;;;10.17;;
18532;SDS011;9396;51.510;11.934;2022-10-14T07:38:19;17.70;;;11.40;;
18532;SDS011;9396;51.510;11.934;2022-10-14T07:40:55;16.43;;;11.13;;
18532;SDS011;9396;51.510;11.934;2022-10-14T07:43:25;14.17;;;10.40;;
18532;SDS011;9396;51.510;11.934;2022-10-14T07:45:52;14.70;;;10.73;;
18532;SDS011;9396;51.510;11.934;2022-10-14T07:48:25;18.17;;;11.07;;
18532;SDS011;9396;51.510;11.934;2022-10-14T07:50:52;16.57;;;10.27;;
18532;SDS011;9396;51.510;11.934;2022-10-14T07:53:19;15.73;;;10.90;;
18532;SDS011;9396;51.510;11.934;2022-10-14T07:55:46;16.80;;;10.07;;
18532;SDS011;9396;51.510;11.934;2022-10-14T07:58:18;15.70;;;10.60;;
18532;SDS011;9396;51.510;11.934;2022-10-14T08:00:46;19.17;;;10.53;;
18532;SDS011;9396;51.510;11.934;2022-10-14T08:03:13;16.87;;;10.60;;
18532;SDS011;9396;51.510;11.934;2022-10-14T08:05:39;13.47;;;10.27;;
18532;SDS011;9396;51.510;11.934;2022-10-14T08:08:06;13.90;;;10.37;;
18532;SDS011;9396;51.510;11.934;2022-10-14T08:10:33;15.27;;;10.47;;
18532;SDS011;9396;51.510;11.934;2022-10-14T08:13:00;14.93;;;10.37;;
18532;SDS011;9396;51.510;11.934;2022-10-14T08:15:31;14.97;;;9.57;;
18532;SDS011;9396;51.510;11.934;2022-10-14T08:17:59;15.73;;;10.07;;
18532;SDS011;9396;51.510;11.934;2022-10-14T08:20:26;16.77;;;10.10;;
18532;SDS011;9396;51.510;11.934;2022-10-14T08:22:52;13.87;;;9.37;;
18532;SDS011;9396;51.510;11.934;2022-10-14T08:25:20;12.37;;;9.03;;
18532;SDS011;9396;51.510;11.934;2022-10-14T08:27:47;17.03;;;9.70;;
18532;SDS011;9396;51.510;11.934;2022-10-14T08:30:15;16.97;;;9.80;;
18532;SDS011;9396;51.510;11.934;2022-10-14T08:32:43;12.27;;;9.60;;
18532;SDS011;9396;51.510;11.934;2022-10-14T08:35:10;13.57;;;9.17;;
18532;SDS011;9396;51.510;11.934;2022-10-14T08:37:36;14.73;;;9.47;;
18532;SDS011;9396;51.510;11.934;2022-10-14T08:40:03;14.30;;;9.90;;
18532;SDS011;9396;51.510;11.934;2022-10-14T08:42:36;17.47;;;8.40;;
18532;SDS011;9396;51.510;11.934;2022-10-14T08:45:09;12.40;;;8.17;;
18532;SDS011;9396;51.510;11.934;2022-10-14T08:47:41;14.60;;;8.50;;
18532;SDS011;9396;51.510;11.934;2022-10-14T08:50:16;14.37;;;8.43;;
18532;SDS011;9396;51.510;11.934;2022-10-14T08:52:51;11.07;;;6.83;;
18532;SDS011;9396;51.510;11.934;2022-10-14T08:55:27;9.73;;;5.83;;
18532;SDS011;9396;51.510;11.934;2022-10-14T08:57:59;8.87;;;5.83;;
18532;SDS011;9396;51.510;11.934;2022-10-14T09:00:28;5.60;;;4.20;;
18532;SDS011;9396;51.510;11.934;2022-10-14T09:02:58;5.10;;;4.10;;
18532;SDS011;9396;51.510;11.934;2022-10-14T09:05:31;3.53;;;3.17;;
18532;SDS011;9396;51.510;11.934;2022-10-14T09:07:57;6.30;;;3.80;;
18532;SDS011;9396;51.510;11.934;2022-10-14T09:10:29;4.53;;;3.30;;
18532;SDS011;9396;51.510;11.934;2022-10-14T09:12:58;8.40;;;3.90;;
18532;SDS011;9396;51.510;11.934;2022-10-14T09:15:34;4.87;;;3.30;;
18532;SDS011;9396;51.510;11.934;2022-10-14T09:18:07;3.73;;;2.90;;
18532;SDS011;9396;51.510;11.934;2022-10-14T09:20:44;8.73;;;3.50;;
18532;SDS011;9396;51.510;11.934;2022-10-14T09:23:13;6.17;;;3.20;;
18532;SDS011;9396;51.510;11.934;2022-10-14T09:25:45;5.97;;;3.47;;
18532;SDS011;9396;51.510;11.934;2022-10-14T09:28:19;4.50;;;3.07;;
18532;SDS011;9396;51.510;11.934;2022-10-14T09:30:47;4.50;;;2.90;;
18532;SDS011;9396;51.510;11.934;2022-10-14T09:33:16;5.40;;;2.87;;
18532;SDS011;9396;51.510;11.934;2022-10-14T09:35:45;3.97;;;2.70;;
18532;SDS011;9396;51.510;11.934;2022-10-14T09:38:13;4.40;;;3.13;;
18532;SDS011;9396;51.510;11.934;2022-10-14T09:40:41;5.17;;;3.50;;
18532;SDS011;9396;51.510;11.934;2022-10-14T09:43:12;4.17;;;2.73;;
18532;SDS011;9396;51.510;11.934;2022-10-14T09:45:46;3.37;;;2.80;;
18532;SDS011;9396;51.510;11.934;2022-10-14T09:48:19;3.80;;;2.80;;
18532;SDS011;9396;51.510;11.934;2022-10-14T09:50:57;8.03;;;2.70;;
18532;SDS011;9396;51.510;11.934;2022-10-14T09:53:27;3.23;;;2.60;;
18532;SDS011;9396;51.510;11.934;2022-10-14T09:55:56;3.70;;;2.57;;
18532;SDS011;9396;51.510;11.934;2022-10-14T09:58:27;3.47;;;2.40;;
18532;SDS011;9396;51.510;11.934;2022-10-14T10:00:57;3.43;;;2.53;;
18532;SDS011;9396;51.510;11.934;2022-10-14T10:03:28;2.97;;;2.50;;
18532;SDS011;9396;51.510;11.934;2022-10-14T10:05:58;4.33;;;2.30;;
18532;SDS011;9396;51.510;11.934;2022-10-14T10:08:27;3.67;;;2.30;;
18532;SDS011;9396;51.510;11.934;2022-10-14T10:10:57;6.30;;;2.87;;
18532;SDS011;9396;51.510;11.934;2022-10-14T10:13:36;3.47;;;2.50;;
18532;SDS011;9396;51.510;11.934;2022-10-14T10:16:06;6.93;;;2.77;;
18532;SDS011;9396;51.510;11.934;2022-10-14T10:18:45;3.10;;;2.47;;
18532;SDS011;9396;51.510;11.934;2022-10-14T10:21:14;4.10;;;2.73;;
18532;SDS011;9396;51.510;11.934;2022-10-14T10:23:49;2.93;;;2.63;;
18532;SDS011;9396;51.510;11.934;2022-10-14T10:26:17;3.60;;;2.37;;
18532;SDS011;9396;51.510;11.934;2022-10-14T10:28:50;5.40;;;2.50;;
18532;SDS011;9396;51.510;11.934;2022-10-14T10:31:42;4.60;;;2.20;;
18532;SDS011;9396;51.510;11.934;2022-10-14T10:34:31;3.57;;;2.30;;
18532;SDS011;9396;51.510;11.934;2022-10-14T10:37:14;2.87;;;2.20;;
18532;SDS011;9396;51.510;11.934;2022-10-14T10:39:51;2.57;;;2.00;;
18532;SDS011;9396;51.510;11.934;2022-10-14T10:42:29;3.43;;;2.23;;
18532;SDS011;9396;51.510;11.934;2022-10-14T10:45:05;4.23;;;2.37;;
18532;SDS011;9396;51.510;11.934;2022-10-14T10:47:42;3.77;;;2.70;;
18532;SDS011;9396;51.510;11.934;2022-10-14T10:50:24;4.83;;;2.43;;
18532;SDS011;9396;51.510;11.934;2022-10-14T10:56:15;4.13;;;2.40;;
18532;SDS011;9396;51.510;11.934;2022-10-14T10:58:55;5.87;;;2.23;;
18532;SDS011;9396;51.510;11.934;2022-10-14T11:01:45;3.47;;;1.97;;
18532;SDS011;9396;51.510;11.934;2022-10-14T11:04:31;4.23;;;2.03;;
18532;SDS011;9396;51.510;11.934;2022-10-14T11:07:03;2.63;;;1.53;;
18532;SDS011;9396;51.510;11.934;2022-10-14T11:09:59;2.27;;;1.60;;
18532;SDS011;9396;51.510;11.934;2022-10-14T11:12:51;1.83;;;1.47;;
18532;SDS011;9396;51.510;11.934;2022-10-14T11:15:24;3.90;;;1.20;;
18532;SDS011;9396;51.510;11.934;2022-10-14T11:18:02;2.00;;;1.17;;
18532;SDS011;9396;51.510;11.934;2022-10-14T11:20:39;1.53;;;1.30;;
18532;SDS011;9396;51.510;11.934;2022-10-14T11:23:25;5.03;;;1.43;;
18532;SDS011;9396;51.510;11.934;2022-10-14T11:26:04;5.40;;;1.33;;
18532;SDS011;9396;51.510;11.934;2022-10-14T11:28:40;2.00;;;1.13;;
18532;SDS011;9396;51.510;11.934;2022-10-14T11:31:17;1.40;;;1.20;;
18532;SDS011;9396;51.510;11.934;2022-10-14T11:33:59;4.03;;;1.60;;
18532;SDS011;9396;51.510;11.934;2022-10-14T11:36:37;2.50;;;1.33;;
18532;SDS011;9396;51.510;11.934;2022-10-14T11:39:20;3.20;;;1.50;;
18532;SDS011;9396;51.510;11.934;2022-10-14T11:42:00;2.80;;;1.33;;
18532;SDS011;9396;51.510;11.934;2022-10-14T11:44:39;6.13;;;1.20;;
18532;SDS011;9396;51.510;11.934;2022-10-14T11:47:08;1.67;;;1.20;;
18532;SDS011;9396;51.510;11.934;2022-10-14T11:49:41;1.50;;;1.20;;
18532;SDS011;9396;51.510;11.934;2022-10-14T11:52:15;1.53;;;1.30;;
18532;SDS011;9396;51.510;11.934;2022-10-14T11:54:49;2.50;;;1.13;;
18532;SDS011;9396;51.510;11.934;2022-10-14T11:57:23;1.63;;;1.37;;
18532;SDS011;9396;51.510;11.934;2022-10-14T11:59:55;4.23;;;1.10;;
18532;SDS011;9396;51.510;11.934;2022-10-14T12:02:28;2.10;;;1.23;;
18532;SDS011;9396;51.510;11.934;2022-10-14T12:05:05;2.20;;;1.30;;
18532;SDS011;9396;51.510;11.934;2022-10-14T12:07:38;2.37;;;1.20;;
18532;SDS011;9396;51.510;11.934;2022-10-14T12:10:16;2.87;;;1.23;;
18532;SDS011;9396;51.510;11.934;2022-10-14T12:12:50;3.77;;;1.20;;
18532;SDS011;9396;51.510;11.934;2022-10-14T12:15:19;1.10;;;1.00;;
18532;SDS011;9396;51.510;11.934;2022-10-14T12:17:49;2.57;;;1.30;;
18532;SDS011;9396;51.510;11.934;2022-10-14T12:20:24;5.20;;;1.23;;
18532;SDS011;9396;51.510;11.934;2022-10-14T12:22:57;1.13;;;0.90;;
18532;SDS011;9396;51.510;11.934;2022-10-14T12:25:29;2.43;;;1.30;;
18532;SDS011;9396;51.510;11.934;2022-10-14T12:28:02;1.67;;;1.00;;
18532;SDS011;9396;51.510;11.934;2022-10-14T12:30:30;2.87;;;1.03;;
18532;SDS011;9396;51.510;11.934;2022-10-14T12:32:59;1.70;;;1.27;;
18532;SDS011;9396;51.510;11.934;2022-10-14T12:35:44;3.50;;;1.30;;
18532;SDS011;9396;51.510;11.934;2022-10-14T12:38:14;2.47;;;1.30;;
18532;SDS011;9396;51.510;11.934;2022-10-14T12:40:42;1.27;;;1.13;;
18532;SDS011;9396;51.510;11.934;2022-10-14T12:43:20;1.50;;;1.00;;
18532;SDS011;9396;51.510;11.934;2022-10-14T12:46:00;4.60;;;1.20;;
18532;SDS011;9396;51.510;11.934;2022-10-14T12:48:34;1.53;;;0.90;;
18532;SDS011;9396;51.510;11.934;2022-10-14T12:51:05;1.43;;;1.00;;
18532;SDS011;9396;51.510;11.934;2022-10-14T12:53:35;1.10;;;0.90;;
18532;SDS011;9396;51.510;11.934;2022-10-14T12:56:06;2.57;;;1.10;;
18532;SDS011;9396;51.510;11.934;2022-10-14T12:58:34;4.73;;;1.00;;
18532;SDS011;9396;51.510;11.934;2022-10-14T13:01:04;1.83;;;0.97;;
18532;SDS011;9396;51.510;11.934;2022-10-14T13:03:41;1.77;;;1.00;;
18532;SDS011;9396;51.510;11.934;2022-10-14T13:06:29;2.23;;;0.77;;
18532;SDS011;9396;51.510;11.934;2022-10-14T13:09:15;5.20;;;0.70;;
18532;SDS011;9396;51.510;11.934;2022-10-14T13:21:02;0.80;;;0.67;;
18532;SDS011;9396;51.510;11.934;2022-10-14T13:23:32;2.27;;;0.63;;
18532;SDS011;9396;51.510;11.934;2022-10-14T13:26:09;1.83;;;0.60;;
18532;SDS011;9396;51.510;11.934;2022-10-14T13:28:49;2.63;;;0.80;;
18532;SDS011;9396;51.510;11.934;2022-10-14T13:31:39;3.27;;;0.97;;
18532;SDS011;9396;51.510;11.934;2022-10-14T13:34:16;2.20;;;0.83;;
18532;SDS011;9396;51.510;11.934;2022-10-14T13:36:55;0.97;;;0.70;;
18532;SDS011;9396;51.510;11.934;2022-10-14T13:39:30;1.23;;;0.90;;
18532;SDS011;9396;51.510;11.934;2022-10-14T13:41:57;2.23;;;0.77;;
18532;SDS011;9396;51.510;11.934;2022-10-14T13:44:24;2.93;;;0.80;;
18532;SDS011;9396;51.510;11.934;2022-10-14T13:46:52;1.23;;;0.60;;
18532;SDS011;9396;51.510;11.934;2022-10-14T13:49:20;0.60;;;0.50;;
18532;SDS011;9396;51.510;11.934;2022-10-14T13:51:52;0.77;;;0.70;;
18532;SDS011;9396;51.510;11.934;2022-10-14T13:54:23;2.77;;;0.90;;
18532;SDS011;9396;51.510;11.934;2022-10-14T13:56:54;1.70;;;0.70;;
18532;SDS011;9396;51.510;11.934;2022-10-14T13:59:26;2.17;;;0.83;;
18532;SDS011;9396;51.510;11.934;2022-10-14T14:01:55;2.70;;;0.90;;
18532;SDS011;9396;51.510;11.934;2022-10-14T14:04:26;1.53;;;0.70;;
18532;SDS011;9396;51.510;11.934;2022-10-14T14:06:55;0.80;;;0.60;;
18532;SDS011;9396;51.510;11.934;2022-10-14T14:09:23;1.23;;;0.90;;
18532;SDS011;9396;51.510;11.934;2022-10-14T14:11:53;3.40;;;0.60;;
18532;SDS011;9396;51.510;11.934;2022-10-14T14:14:21;1.80;;;0.80;;
18532;SDS011;9396;51.510;11.934;2022-10-14T14:16:51;1.07;;;0.80;;
18532;SDS011;9396;51.510;11.934;2022-10-14T14:19:23;1.30;;;0.67;;
18532;SDS011;9396;51.510;11.934;2022-10-14T14:22:03;0.97;;;0.87;;
18532;SDS011;9396;51.510;11.934;2022-10-14T14:24:31;1.00;;;0.73;;
18532;SDS011;9396;51.510;11.934;2022-10-14T14:26:59;0.83;;;0.70;;
18532;SDS011;9396;51.510;11.934;2022-10-14T14:29:26;0.80;;;0.80;;
18532;SDS011;9396;51.510;11.934;2022-10-14T14:31:56;1.13;;;0.80;;
18532;SDS011;9396;51.510;11.934;2022-10-14T14:34:25;3.00;;;0.90;;
18532;SDS011;9396;51.510;11.934;2022-10-14T14:36:52;2.07;;;0.93;;
18532;SDS011;9396;51.510;11.934;2022-10-14T14:39:23;1.17;;;0.80;;
18532;SDS011;9396;51.510;11.934;2022-10-14T14:41:52;1.47;;;0.90;;
18532;SDS011;9396;51.510;11.934;2022-10-14T14:44:21;1.73;;;0.90;;
18532;SDS011;9396;51.510;11.934;2022-10-14T14:46:50;1.10;;;0.90;;
18532;SDS011;9396;51.510;11.934;2022-10-14T14:49:20;0.87;;;0.80;;
18532;SDS011;9396;51.510;11.934;2022-10-14T14:51:51;0.87;;;0.70;;
18532;SDS011;9396;51.510;11.934;2022-10-14T14:54:20;1.73;;;1.00;;
18532;SDS011;9396;51.510;11.934;2022-10-14T14:56:48;0.93;;;0.80;;
18532;SDS011;9396;51.510;11.934;2022-10-14T14:59:20;1.57;;;1.00;;
18532;SDS011;9396;51.510;11.934;2022-10-14T15:01:52;1.63;;;0.90;;
18532;SDS011;9396;51.510;11.934;2022-10-14T15:04:20;2.10;;;1.00;;
18532;SDS011;9396;51.510;11.934;2022-10-14T15:06:48;1.40;;;1.00;;
18532;SDS011;9396;51.510;11.934;2022-10-14T15:09:19;1.37;;;1.10;;